sensor_id;sensor_type;location;lat;lon;timestamp;pressure;altitude;pressure_sealevel;temperature;humidity
20160;BME280;50187;50.492;12.134;2023-03-13T00:02:43;96863.13;;;18.56;30.29
20160;BME280;50187;50.492;12.134;2023-03-13T00:05:34;96857.56;;;18.49;30.30
20160;BME280;50187;50.492;12.134;2023-03-13T00:08:19;96871.69;;;18.60;30.33
20160;BME280;50187;50.492;12.134;2023-03-13T00:11:06;96868.00;;;18.61;30.33
20160;BME280;50187;50.492;12.134;2023-03-13T00:13:59;96864.28;;;18.62;30.31
20160;BME280;50187;50.492;12.134;2023-03-13T00:16:46;96861.94;;;18.59;30.28
20160;BME280;50187;50.492;12.134;2023-03-13T00:19:31;96865.47;;;18.59;30.19
20160;BME280;50187;50.492;12.134;2023-03-13T00:22:16;96866.16;;;18.53;30.36
20160;BME280;50187;50.492;12.134;2023-03-13T00:25:02;96861.25;;;18.57;30.35
20160;BME280;50187;50.492;12.134;2023-03-13T00:27:47;96855.22;;;18.63;30.36
20160;BME280;50187;50.492;12.134;2023-03-13T00:30:33;96858.72;;;18.63;30.21
20160;BME280;50187;50.492;12.134;2023-03-13T00:33:18;96849.97;;;18.61;30.23
20160;BME280;50187;50.492;12.134;2023-03-13T00:36:09;96835.00;;;18.59;30.26
20160;BME280;50187;50.492;12.134;2023-03-13T00:38:56;96845.78;;;18.59;30.28
20160;BME280;50187;50.492;12.134;2023-03-13T00:41:41;96835.00;;;18.59;30.27
20160;BME280;50187;50.492;12.134;2023-03-13T00:44:27;96838.88;;;18.64;30.22
20160;BME280;50187;50.492;12.134;2023-03-13T00:47:12;96822.03;;;18.54;30.22
20160;BME280;50187;50.492;12.134;2023-03-13T00:50:00;96839.72;;;18.57;30.33
20160;BME280;50187;50.492;12.134;2023-03-13T00:52:45;96827.09;;;18.57;30.35
20160;BME280;50187;50.492;12.134;2023-03-13T00:55:30;96836.50;;;18.61;30.28
20160;BME280;50187;50.492;12.134;2023-03-13T00:58:16;96814.94;;;18.61;30.23
20160;BME280;50187;50.492;12.134;2023-03-13T01:04:03;96820.84;;;18.57;30.35
20160;BME280;50187;50.492;12.134;2023-03-13T01:06:48;96828.75;;;18.58;30.34
20160;BME280;50187;50.492;12.134;2023-03-13T01:09:34;96827.59;;;18.52;30.41
20160;BME280;50187;50.492;12.134;2023-03-13T01:12:19;96816.47;;;18.56;30.25
20160;BME280;50187;50.492;12.134;2023-03-13T01:15:04;96806.56;;;18.48;30.46
20160;BME280;50187;50.492;12.134;2023-03-13T01:17:49;96816.50;;;18.47;30.46
20160;BME280;50187;50.492;12.134;2023-03-13T01:20:34;96802.38;;;18.37;30.59
20160;BME280;50187;50.492;12.134;2023-03-13T01:23:20;96799.00;;;18.43;30.46
20160;BME280;50187;50.492;12.134;2023-03-13T01:26:06;96806.22;;;18.51;30.38
20160;BME280;50187;50.492;12.134;2023-03-13T01:28:52;96795.63;;;18.49;30.31
20160;BME280;50187;50.492;12.134;2023-03-13T01:31:38;96802.69;;;18.50;30.46
20160;BME280;50187;50.492;12.134;2023-03-13T01:34:24;96786.72;;;18.41;30.50
20160;BME280;50187;50.492;12.134;2023-03-13T01:37:09;96778.13;;;18.37;30.58
20160;BME280;50187;50.492;12.134;2023-03-13T01:39:55;96771.91;;;18.45;30.50
20160;BME280;50187;50.492;12.134;2023-03-13T01:42:55;96792.94;;;18.49;30.24
20160;BME280;50187;50.492;12.134;2023-03-13T01:52:18;96767.88;;;18.49;30.48
20160;BME280;50187;50.492;12.134;2023-03-13T01:55:27;96789.91;;;18.44;30.34
20160;BME280;50187;50.492;12.134;2023-03-13T01:58:12;96767.69;;;18.50;30.32
20160;BME280;50187;50.492;12.134;2023-03-13T02:00:59;96765.66;;;18.44;30.42
20160;BME280;50187;50.492;12.134;2023-03-13T02:03:45;96766.69;;;18.43;30.50
20160;BME280;50187;50.492;12.134;2023-03-13T02:06:33;96749.84;;;18.41;30.47
20160;BME280;50187;50.492;12.134;2023-03-13T02:09:23;96756.41;;;18.47;30.50
20160;BME280;50187;50.492;12.134;2023-03-13T02:12:14;96749.84;;;18.49;30.35
20160;BME280;50187;50.492;12.134;2023-03-13T02:15:23;96756.75;;;18.52;30.31
20160;BME280;50187;50.492;12.134;2023-03-13T02:18:09;96767.53;;;18.44;30.41
20160;BME280;50187;50.492;12.134;2023-03-13T02:21:04;96746.50;;;18.47;30.37
20160;BME280;50187;50.492;12.134;2023-03-13T02:23:59;96757.94;;;18.49;30.41
20160;BME280;50187;50.492;12.134;2023-03-13T02:26:46;96740.25;;;18.47;30.33
20160;BME280;50187;50.492;12.134;2023-03-13T02:29:32;96736.38;;;18.49;30.46
20160;BME280;50187;50.492;12.134;2023-03-13T02:32:17;96730.66;;;18.44;30.59
20160;BME280;50187;50.492;12.134;2023-03-13T02:35:07;96715.53;;;18.43;30.49
20160;BME280;50187;50.492;12.134;2023-03-13T02:37:56;96705.59;;;18.44;30.39
20160;BME280;50187;50.492;12.134;2023-03-13T02:40:45;96708.81;;;18.39;30.50
20160;BME280;50187;50.492;12.134;2023-03-13T02:43:34;96709.31;;;18.43;30.41
20160;BME280;50187;50.492;12.134;2023-03-13T02:46:21;96685.25;;;18.41;30.51
20160;BME280;50187;50.492;12.134;2023-03-13T02:49:30;96680.38;;;18.45;30.50
20160;BME280;50187;50.492;12.134;2023-03-13T02:52:23;96688.63;;;18.43;30.44
20160;BME280;50187;50.492;12.134;2023-03-13T02:55:33;96697.00;;;18.48;30.35
20160;BME280;50187;50.492;12.134;2023-03-13T02:58:23;96696.16;;;18.48;30.39
20160;BME280;50187;50.492;12.134;2023-03-13T03:01:09;96694.66;;;18.45;30.43
20160;BME280;50187;50.492;12.134;2023-03-13T03:03:57;96698.69;;;18.41;30.60
20160;BME280;50187;50.492;12.134;2023-03-13T03:06:43;96679.69;;;18.43;30.45
20160;BME280;50187;50.492;12.134;2023-03-13T03:09:28;96697.00;;;18.48;30.31
20160;BME280;50187;50.492;12.134;2023-03-13T03:12:18;96680.19;;;18.46;30.50
20160;BME280;50187;50.492;12.134;2023-03-13T03:15:05;96678.31;;;18.47;30.48
20160;BME280;50187;50.492;12.134;2023-03-13T03:17:53;96678.50;;;18.45;30.44
20160;BME280;50187;50.492;12.134;2023-03-13T03:20:38;96673.78;;;18.47;30.48
20160;BME280;50187;50.492;12.134;2023-03-13T03:23:24;96682.19;;;18.44;30.37
20160;BME280;50187;50.492;12.134;2023-03-13T03:26:09;96673.81;;;18.39;30.42
20160;BME280;50187;50.492;12.134;2023-03-13T03:28:55;96663.22;;;18.38;30.52
20160;BME280;50187;50.492;12.134;2023-03-13T03:31:41;96689.44;;;18.44;30.49
20160;BME280;50187;50.492;12.134;2023-03-13T03:34:27;96697.00;;;18.40;30.50
20160;BME280;50187;50.492;12.134;2023-03-13T03:37:13;96682.88;;;18.46;30.55
20160;BME280;50187;50.492;12.134;2023-03-13T03:39:58;96674.13;;;18.44;30.41
20160;BME280;50187;50.492;12.134;2023-03-13T03:42:47;96663.69;;;18.41;30.42
20160;BME280;50187;50.492;12.134;2023-03-13T03:45:32;96668.44;;;18.39;30.53
20160;BME280;50187;50.492;12.134;2023-03-13T03:48:18;96663.06;;;18.39;30.51
20160;BME280;50187;50.492;12.134;2023-03-13T03:51:04;96659.31;;;18.48;30.45
20160;BME280;50187;50.492;12.134;2023-03-13T03:53:52;96654.78;;;18.49;30.36
20160;BME280;50187;50.492;12.134;2023-03-13T03:56:38;96632.47;;;18.32;30.47
20160;BME280;50187;50.492;12.134;2023-03-13T03:59:25;96648.22;;;18.43;30.49
20160;BME280;50187;50.492;12.134;2023-03-13T04:02:15;96643.03;;;18.42;30.58
20160;BME280;50187;50.492;12.134;2023-03-13T04:05:03;96624.31;;;18.40;30.43
20160;BME280;50187;50.492;12.134;2023-03-13T04:07:51;96588.25;;;18.18;30.44
20160;BME280;50187;50.492;12.134;2023-03-13T04:10:37;96622.63;;;18.47;30.40
20160;BME280;50187;50.492;12.134;2023-03-13T04:13:22;96617.28;;;18.39;30.48
20160;BME280;50187;50.492;12.134;2023-03-13T04:16:09;96605.63;;;18.47;30.53
20160;BME280;50187;50.492;12.134;2023-03-13T04:18:55;96607.50;;;18.46;30.42
20160;BME280;50187;50.492;12.134;2023-03-13T04:21:43;96590.66;;;18.44;30.35
20160;BME280;50187;50.492;12.134;2023-03-13T04:24:34;96601.09;;;18.47;30.42
20160;BME280;50187;50.492;12.134;2023-03-13T04:27:20;96577.56;;;18.33;30.51
20160;BME280;50187;50.492;12.134;2023-03-13T04:30:07;96585.63;;;18.41;30.52
20160;BME280;50187;50.492;12.134;2023-03-13T04:33:23;96594.66;;;18.48;30.33
20160;BME280;50187;50.492;12.134;2023-03-13T04:36:43;96580.75;;;18.45;30.42
20160;BME280;50187;50.492;12.134;2023-03-13T04:39:49;96575.53;;;18.43;30.46
20160;BME280;50187;50.492;12.134;2023-03-13T04:42:53;96549.63;;;18.42;30.48
20160;BME280;50187;50.492;12.134;2023-03-13T04:45:57;96532.31;;;18.36;30.43
20160;BME280;50187;50.492;12.134;2023-03-13T04:49:01;96542.38;;;18.43;30.57
20160;BME280;50187;50.492;12.134;2023-03-13T04:51:49;96522.00;;;18.40;30.39
20160;BME280;50187;50.492;12.134;2023-03-13T04:54:53;96525.75;;;18.39;30.48
20160;BME280;50187;50.492;12.134;2023-03-13T04:57:57;96518.19;;;18.34;30.65
20160;BME280;50187;50.492;12.134;2023-03-13T05:00:52;96526.75;;;18.38;30.66
20160;BME280;50187;50.492;12.134;2023-03-13T05:03:54;96514.63;;;18.42;30.75
20160;BME280;50187;50.492;12.134;2023-03-13T05:06:54;96497.91;;;18.47;30.52
20160;BME280;50187;50.492;12.134;2023-03-13T05:10:03;96490.94;;;18.38;30.40
20160;BME280;50187;50.492;12.134;2023-03-13T05:13:04;96506.44;;;18.82;30.29
20160;BME280;50187;50.492;12.134;2023-03-13T05:16:06;96515.84;;;18.86;30.25
20160;BME280;50187;50.492;12.134;2023-03-13T05:19:11;96509.88;;;18.99;30.04
20160;BME280;50187;50.492;12.134;2023-03-13T05:22:34;96505.44;;;19.06;30.01
20160;BME280;50187;50.492;12.134;2023-03-13T05:25:39;96480.47;;;19.12;29.84
20160;BME280;50187;50.492;12.134;2023-03-13T05:28:43;96494.81;;;19.28;29.79
20160;BME280;50187;50.492;12.134;2023-03-13T05:31:47;96501.22;;;19.27;29.82
20160;BME280;50187;50.492;12.134;2023-03-13T05:34:49;96480.47;;;19.27;29.79
20160;BME280;50187;50.492;12.134;2023-03-13T05:38:13;96464.41;;;19.34;29.91
20160;BME280;50187;50.492;12.134;2023-03-13T05:41:37;96465.78;;;19.30;29.71
20160;BME280;50187;50.492;12.134;2023-03-13T05:44:43;96492.56;;;19.31;29.83
20160;BME280;50187;50.492;12.134;2023-03-13T05:48:04;96460.69;;;19.35;29.82
20160;BME280;50187;50.492;12.134;2023-03-13T05:50:57;96452.59;;;19.35;29.63
20160;BME280;50187;50.492;12.134;2023-03-13T05:54:05;96457.31;;;19.33;29.84
20160;BME280;50187;50.492;12.134;2023-03-13T05:57:12;96452.59;;;19.35;29.88
20160;BME280;50187;50.492;12.134;2023-03-13T06:00:23;96460.31;;;19.38;29.78
20160;BME280;50187;50.492;12.134;2023-03-13T06:03:31;96460.88;;;19.33;29.74
20160;BME280;50187;50.492;12.134;2023-03-13T06:06:17;96453.81;;;19.32;29.85
20160;BME280;50187;50.492;12.134;2023-03-13T06:09:08;96442.66;;;19.35;29.80
20160;BME280;50187;50.492;12.134;2023-03-13T06:11:56;96426.19;;;19.30;29.91
20160;BME280;50187;50.492;12.134;2023-03-13T06:14:42;96419.03;;;19.22;30.01
20160;BME280;50187;50.492;12.134;2023-03-13T06:17:39;96431.56;;;19.30;29.95
20160;BME280;50187;50.492;12.134;2023-03-13T06:20:24;96431.38;;;19.32;29.96
20160;BME280;50187;50.492;12.134;2023-03-13T06:23:10;96422.19;;;19.26;29.82
20160;BME280;50187;50.492;12.134;2023-03-13T06:25:55;96398.28;;;19.23;29.83
20160;BME280;50187;50.492;12.134;2023-03-13T06:28:40;96393.63;;;19.32;29.98
20160;BME280;50187;50.492;12.134;2023-03-13T06:31:25;96403.78;;;19.30;29.83
20160;BME280;50187;50.492;12.134;2023-03-13T06:34:15;96405.00;;;19.27;29.92
20160;BME280;50187;50.492;12.134;2023-03-13T06:37:09;96390.31;;;19.30;29.86
20160;BME280;50187;50.492;12.134;2023-03-13T06:39:54;96418.56;;;19.34;29.75
20160;BME280;50187;50.492;12.134;2023-03-13T06:42:39;96413.06;;;19.27;29.89
20160;BME280;50187;50.492;12.134;2023-03-13T06:45:25;96411.88;;;19.30;29.91
20160;BME280;50187;50.492;12.134;2023-03-13T06:48:10;96409.28;;;19.36;29.82
20160;BME280;50187;50.492;12.134;2023-03-13T06:50:55;96410.56;;;19.26;29.89
20160;BME280;50187;50.492;12.134;2023-03-13T06:53:41;96420.72;;;19.24;29.99
20160;BME280;50187;50.492;12.134;2023-03-13T06:56:27;96419.06;;;19.37;29.97
20160;BME280;50187;50.492;12.134;2023-03-13T06:59:12;96407.22;;;19.38;29.92
20160;BME280;50187;50.492;12.134;2023-03-13T07:01:57;96382.69;;;19.33;29.98
20160;BME280;50187;50.492;12.134;2023-03-13T07:04:42;96384.00;;;19.37;30.06
20160;BME280;50187;50.492;12.134;2023-03-13T07:07:29;96384.81;;;19.38;30.08
20160;BME280;50187;50.492;12.134;2023-03-13T07:10:16;96389.47;;;19.44;29.90
20160;BME280;50187;50.492;12.134;2023-03-13T07:13:01;96348.09;;;19.37;29.96
20160;BME280;50187;50.492;12.134;2023-03-13T07:15:47;96345.00;;;19.40;30.11
20160;BME280;50187;50.492;12.134;2023-03-13T07:18:33;96346.78;;;19.48;30.21
20160;BME280;50187;50.492;12.134;2023-03-13T07:21:18;96325.13;;;19.41;30.47
20160;BME280;50187;50.492;12.134;2023-03-13T07:24:04;96325.94;;;19.42;30.73
20160;BME280;50187;50.492;12.134;2023-03-13T07:26:52;96347.59;;;19.48;30.58
20160;BME280;50187;50.492;12.134;2023-03-13T07:29:51;96328.28;;;19.30;30.40
20160;BME280;50187;50.492;12.134;2023-03-13T07:32:36;96379.53;;;19.45;30.60
20160;BME280;50187;50.492;12.134;2023-03-13T07:35:22;96373.47;;;19.43;30.43
20160;BME280;50187;50.492;12.134;2023-03-13T07:38:07;96375.44;;;19.34;30.43
20160;BME280;50187;50.492;12.134;2023-03-13T07:40:54;96394.03;;;19.44;30.42
20160;BME280;50187;50.492;12.134;2023-03-13T07:43:40;96413.28;;;19.41;30.42
20160;BME280;50187;50.492;12.134;2023-03-13T07:46:26;96399.22;;;19.45;30.44
20160;BME280;50187;50.492;12.134;2023-03-13T07:49:11;96391.97;;;19.46;30.33
20160;BME280;50187;50.492;12.134;2023-03-13T07:51:57;96372.25;;;19.30;30.40
20160;BME280;50187;50.492;12.134;2023-03-13T07:54:42;96411.88;;;19.45;30.34
20160;BME280;50187;50.492;12.134;2023-03-13T07:57:28;96400.25;;;19.44;30.55
20160;BME280;50187;50.492;12.134;2023-03-13T08:00:13;96404.44;;;19.47;30.61
20160;BME280;50187;50.492;12.134;2023-03-13T08:03:01;96398.59;;;19.43;30.51
20160;BME280;50187;50.492;12.134;2023-03-13T08:06:15;96412.53;;;19.47;30.74
20160;BME280;50187;50.492;12.134;2023-03-13T08:09:03;96406.00;;;19.41;30.73
20160;BME280;50187;50.492;12.134;2023-03-13T08:11:49;96396.44;;;19.38;30.89
20160;BME280;50187;50.492;12.134;2023-03-13T08:14:34;96384.53;;;19.33;30.90
20160;BME280;50187;50.492;12.134;2023-03-13T08:17:18;96399.03;;;19.32;30.88
20160;BME280;50187;50.492;12.134;2023-03-13T08:20:04;96413.34;;;19.47;30.90
20160;BME280;50187;50.492;12.134;2023-03-13T08:22:54;96405.44;;;19.46;30.92
20160;BME280;50187;50.492;12.134;2023-03-13T08:25:39;96409.38;;;19.43;31.03
20160;BME280;50187;50.492;12.134;2023-03-13T08:28:24;96406.13;;;19.48;30.81
20160;BME280;50187;50.492;12.134;2023-03-13T08:31:22;96381.38;;;19.44;30.76
20160;BME280;50187;50.492;12.134;2023-03-13T08:34:07;96393.19;;;19.43;30.84
20160;BME280;50187;50.492;12.134;2023-03-13T08:36:53;96373.28;;;19.44;30.59
20160;BME280;50187;50.492;12.134;2023-03-13T08:39:38;96375.16;;;19.44;30.74
20160;BME280;50187;50.492;12.134;2023-03-13T08:42:24;96372.84;;;19.41;30.65
20160;BME280;50187;50.492;12.134;2023-03-13T08:45:10;96363.25;;;19.38;30.75
20160;BME280;50187;50.492;12.134;2023-03-13T08:47:55;96371.63;;;19.43;30.72
20160;BME280;50187;50.492;12.134;2023-03-13T08:50:40;96374.75;;;19.47;30.68
20160;BME280;50187;50.492;12.134;2023-03-13T08:53:25;96369.94;;;19.42;30.82
20160;BME280;50187;50.492;12.134;2023-03-13T08:56:12;96372.84;;;19.41;30.85
20160;BME280;50187;50.492;12.134;2023-03-13T08:59:00;96378.03;;;19.42;30.62
20160;BME280;50187;50.492;12.134;2023-03-13T09:01:45;96364.94;;;19.39;30.74
20160;BME280;50187;50.492;12.134;2023-03-13T09:04:30;96363.88;;;19.40;30.76
20160;BME280;50187;50.492;12.134;2023-03-13T09:07:15;96354.97;;;19.39;30.67
20160;BME280;50187;50.492;12.134;2023-03-13T09:10:00;96360.66;;;19.45;30.70
20160;BME280;50187;50.492;12.134;2023-03-13T09:12:45;96341.00;;;19.36;30.75
20160;BME280;50187;50.492;12.134;2023-03-13T09:15:32;96352.56;;;19.45;30.70
20160;BME280;50187;50.492;12.134;2023-03-13T09:18:17;96346.69;;;19.41;30.60
20160;BME280;50187;50.492;12.134;2023-03-13T09:21:06;96339.72;;;19.47;30.62
20160;BME280;50187;50.492;12.134;2023-03-13T09:23:52;96336.91;;;19.40;30.53
20160;BME280;50187;50.492;12.134;2023-03-13T09:26:39;96353.75;;;19.42;30.55
20160;BME280;50187;50.492;12.134;2023-03-13T09:29:35;96337.97;;;19.39;30.72
20160;BME280;50187;50.492;12.134;2023-03-13T09:32:24;96344.47;;;19.45;30.56
20160;BME280;50187;50.492;12.134;2023-03-13T09:35:09;96360.84;;;19.43;30.68
20160;BME280;50187;50.492;12.134;2023-03-13T09:37:54;96351.91;;;19.43;30.64
20160;BME280;50187;50.492;12.134;2023-03-13T09:40:44;96347.59;;;19.48;30.60
20160;BME280;50187;50.492;12.134;2023-03-13T09:49:40;96337.84;;;19.47;30.63
20160;BME280;50187;50.492;12.134;2023-03-13T09:52:30;96339.28;;;19.43;30.71
20160;BME280;50187;50.492;12.134;2023-03-13T09:55:20;96341.78;;;19.45;30.70
20160;BME280;50187;50.492;12.134;2023-03-13T09:58:14;96334.31;;;19.47;30.71
20160;BME280;50187;50.492;12.134;2023-03-13T10:01:03;96325.22;;;19.48;30.76
20160;BME280;50187;50.492;12.134;2023-03-13T10:07:09;96322.91;;;19.45;30.66
20160;BME280;50187;50.492;12.134;2023-03-13T10:09:55;96306.53;;;19.46;30.56
20160;BME280;50187;50.492;12.134;2023-03-13T10:12:44;96305.88;;;19.44;30.61
20160;BME280;50187;50.492;12.134;2023-03-13T10:15:41;96311.00;;;19.39;30.89
20160;BME280;50187;50.492;12.134;2023-03-13T10:18:31;96335.28;;;19.39;30.80
20160;BME280;50187;50.492;12.134;2023-03-13T10:21:19;96341.78;;;19.45;30.89
20160;BME280;50187;50.492;12.134;2023-03-13T10:24:34;96329.88;;;19.39;30.80
20160;BME280;50187;50.492;12.134;2023-03-13T10:27:17;96323.81;;;19.37;30.82
20160;BME280;50187;50.492;12.134;2023-03-13T10:30:02;96351.91;;;19.43;30.77
20160;BME280;50187;50.492;12.134;2023-03-13T10:32:47;96307.66;;;19.37;30.98
20160;BME280;50187;50.492;12.134;2023-03-13T10:35:38;96345.00;;;19.40;30.80
20160;BME280;50187;50.492;12.134;2023-03-13T10:38:24;96320.84;;;19.32;30.79
20160;BME280;50187;50.492;12.134;2023-03-13T10:41:25;96337.50;;;19.35;30.79
20160;BME280;50187;50.492;12.134;2023-03-13T10:44:16;96330.91;;;19.38;30.92
20160;BME280;50187;50.492;12.134;2023-03-13T10:47:02;96349.78;;;19.38;30.78
20160;BME280;50187;50.492;12.134;2023-03-13T10:49:51;96338.78;;;19.39;30.79
20160;BME280;50187;50.492;12.134;2023-03-13T10:55:24;96339.56;;;19.33;30.90
20160;BME280;50187;50.492;12.134;2023-03-13T10:58:19;96336.72;;;19.42;30.82
20160;BME280;50187;50.492;12.134;2023-03-13T11:01:16;96334.88;;;19.42;30.91
20160;BME280;50187;50.492;12.134;2023-03-13T11:04:39;96340.91;;;19.44;30.86
20160;BME280;50187;50.492;12.134;2023-03-13T11:07:31;96334.31;;;19.32;30.88
20160;BME280;50187;50.492;12.134;2023-03-13T11:10:24;96344.00;;;19.41;30.99
20160;BME280;50187;50.492;12.134;2023-03-13T11:16:28;96346.06;;;19.39;30.89
20160;BME280;50187;50.492;12.134;2023-03-13T11:19:28;96336.72;;;19.42;30.93
20160;BME280;50187;50.492;12.134;2023-03-13T11:22:26;96315.00;;;19.43;30.84
20160;BME280;50187;50.492;12.134;2023-03-13T11:25:20;96328.47;;;19.43;30.84
20160;BME280;50187;50.492;12.134;2023-03-13T11:31:33;96312.03;;;19.38;30.84
20160;BME280;50187;50.492;12.134;2023-03-13T11:34:41;96316.41;;;19.39;30.96
20160;BME280;50187;50.492;12.134;2023-03-13T11:37:32;96303.84;;;19.31;30.98
20160;BME280;50187;50.492;12.134;2023-03-13T11:40:32;96297.53;;;19.39;30.99
20160;BME280;50187;50.492;12.134;2023-03-13T11:43:33;96295.84;;;19.38;30.85
20160;BME280;50187;50.492;12.134;2023-03-13T11:49:45;96292.56;;;19.43;30.89
20160;BME280;50187;50.492;12.134;2023-03-13T11:52:46;96282.63;;;19.43;30.83
20160;BME280;50187;50.492;12.134;2023-03-13T11:55:51;96287.66;;;19.46;30.80
20160;BME280;50187;50.492;12.134;2023-03-13T12:01:41;96289.44;;;19.39;31.04
20160;BME280;50187;50.492;12.134;2023-03-13T12:04:38;96290.44;;;19.38;31.04
20160;BME280;50187;50.492;12.134;2023-03-13T12:07:26;96290.72;;;19.43;30.90
20160;BME280;50187;50.492;12.134;2023-03-13T12:10:18;96284.41;;;19.36;30.92
20160;BME280;50187;50.492;12.134;2023-03-13T12:13:16;96287.22;;;19.28;30.98
20160;BME280;50187;50.492;12.134;2023-03-13T12:16:10;96288.97;;;19.35;30.98
20160;BME280;50187;50.492;12.134;2023-03-13T12:18:57;96288.13;;;19.35;30.96
20160;BME280;50187;50.492;12.134;2023-03-13T12:21:49;96296.22;;;19.35;30.97
20160;BME280;50187;50.492;12.134;2023-03-13T12:24:43;96292.88;;;19.33;31.16
20160;BME280;50187;50.492;12.134;2023-03-13T12:27:39;96269.47;;;19.33;31.01
20160;BME280;50187;50.492;12.134;2023-03-13T12:30:37;96278.28;;;19.27;31.08
20160;BME280;50187;50.492;12.134;2023-03-13T12:33:31;96259.50;;;19.34;31.06
20160;BME280;50187;50.492;12.134;2023-03-13T12:36:30;96254.69;;;19.29;31.18
20160;BME280;50187;50.492;12.134;2023-03-13T12:39:39;96243.31;;;19.34;31.24
20160;BME280;50187;50.492;12.134;2023-03-13T12:42:41;96247.69;;;19.35;31.03
20160;BME280;50187;50.492;12.134;2023-03-13T12:45:28;96235.53;;;19.24;31.18
20160;BME280;50187;50.492;12.134;2023-03-13T13:00:21;96217.38;;;19.33;31.17
20160;BME280;50187;50.492;12.134;2023-03-13T13:03:30;96211.28;;;19.24;31.33
20160;BME280;50187;50.492;12.134;2023-03-13T13:06:19;96206.34;;;19.28;31.38
20160;BME280;50187;50.492;12.134;2023-03-13T13:09:29;96173.94;;;19.06;31.26
20160;BME280;50187;50.492;12.134;2023-03-13T13:12:22;96188.03;;;19.23;31.38
20160;BME280;50187;50.492;12.134;2023-03-13T13:15:24;96208.09;;;19.20;31.45
20160;BME280;50187;50.492;12.134;2023-03-13T13:18:25;96179.22;;;19.14;31.43
20160;BME280;50187;50.492;12.134;2023-03-13T13:39:46;96191.22;;;19.12;31.42
20160;BME280;50187;50.492;12.134;2023-03-13T13:45:37;96176.81;;;19.19;31.47
20160;BME280;50187;50.492;12.134;2023-03-13T13:54:02;96140.91;;;19.19;31.45
20160;BME280;50187;50.492;12.134;2023-03-13T13:57:09;96152.94;;;19.16;31.47
20160;BME280;50187;50.492;12.134;2023-03-13T14:02:54;96112.44;;;19.10;31.53
20160;BME280;50187;50.492;12.134;2023-03-13T14:05:40;96138.03;;;19.20;31.51
20160;BME280;50187;50.492;12.134;2023-03-13T14:08:35;96122.44;;;19.16;31.67
20160;BME280;50187;50.492;12.134;2023-03-13T14:11:29;96117.81;;;19.10;31.63
20160;BME280;50187;50.492;12.134;2023-03-13T14:14:19;96116.03;;;19.17;31.38
20160;BME280;50187;50.492;12.134;2023-03-13T14:17:08;96134.06;;;19.16;31.49
20160;BME280;50187;50.492;12.134;2023-03-13T14:19:53;96115.22;;;19.16;31.50
20160;BME280;50187;50.492;12.134;2023-03-13T14:22:46;96131.88;;;19.05;31.35
20160;BME280;50187;50.492;12.134;2023-03-13T14:25:47;96106.34;;;19.22;31.44
20160;BME280;50187;50.492;12.134;2023-03-13T14:28:33;96141.50;;;19.14;31.30
20160;BME280;50187;50.492;12.134;2023-03-13T14:31:31;96102.56;;;19.17;31.56
20160;BME280;50187;50.492;12.134;2023-03-13T14:34:17;96103.34;;;19.11;31.66
20160;BME280;50187;50.492;12.134;2023-03-13T14:40:28;96081.38;;;19.14;31.41
20160;BME280;50187;50.492;12.134;2023-03-13T14:43:24;96076.31;;;19.04;31.46
20160;BME280;50187;50.492;12.134;2023-03-13T14:46:17;96064.38;;;18.92;31.66
20160;BME280;50187;50.492;12.134;2023-03-13T14:49:17;96053.16;;;19.10;31.54
20160;BME280;50187;50.492;12.134;2023-03-13T14:52:05;96046.66;;;19.04;31.51
20160;BME280;50187;50.492;12.134;2023-03-13T14:54:54;96066.63;;;19.10;31.46
20160;BME280;50187;50.492;12.134;2023-03-13T14:57:56;96064.34;;;19.13;31.46
20160;BME280;50187;50.492;12.134;2023-03-13T15:00:44;96058.59;;;19.16;31.47
20160;BME280;50187;50.492;12.134;2023-03-13T15:03:31;96047.81;;;19.16;31.38
20160;BME280;50187;50.492;12.134;2023-03-13T15:06:19;96050.53;;;19.16;31.54
20160;BME280;50187;50.492;12.134;2023-03-13T15:09:16;96050.31;;;19.18;31.57
20160;BME280;50187;50.492;12.134;2023-03-13T15:12:02;96062.31;;;19.15;31.46
20160;BME280;50187;50.492;12.134;2023-03-13T15:14:50;96046.28;;;19.07;31.47
20160;BME280;50187;50.492;12.134;2023-03-13T15:17:36;96025.22;;;19.17;31.58
20160;BME280;50187;50.492;12.134;2023-03-13T15:20:21;96010.47;;;19.13;31.52
20160;BME280;50187;50.492;12.134;2023-03-13T15:23:10;96004.31;;;19.19;31.63
20160;BME280;50187;50.492;12.134;2023-03-13T15:25:57;95984.78;;;19.17;31.59
20160;BME280;50187;50.492;12.134;2023-03-13T15:28:43;95988.97;;;19.20;31.45
20160;BME280;50187;50.492;12.134;2023-03-13T15:31:28;95954.72;;;19.14;31.46
20160;BME280;50187;50.492;12.134;2023-03-13T15:34:14;95937.69;;;19.13;31.57
20160;BME280;50187;50.492;12.134;2023-03-13T15:37:00;95940.03;;;19.16;31.46
20160;BME280;50187;50.492;12.134;2023-03-13T15:39:45;95934.84;;;19.21;31.40
20160;BME280;50187;50.492;12.134;2023-03-13T15:42:31;95941.25;;;19.14;31.67
20160;BME280;50187;50.492;12.134;2023-03-13T15:45:16;95928.38;;;19.16;31.52
20160;BME280;50187;50.492;12.134;2023-03-13T15:48:18;95900.63;;;19.15;31.41
20160;BME280;50187;50.492;12.134;2023-03-13T15:51:04;95910.94;;;19.12;31.47
20160;BME280;50187;50.492;12.134;2023-03-13T15:53:49;95907.91;;;19.21;31.36
20160;BME280;50187;50.492;12.134;2023-03-13T15:56:35;95893.94;;;19.11;31.52
20160;BME280;50187;50.492;12.134;2023-03-13T15:59:22;95895.44;;;19.14;31.54
20160;BME280;50187;50.492;12.134;2023-03-13T16:02:16;95897.97;;;18.94;31.41
20160;BME280;50187;50.492;12.134;2023-03-13T16:05:01;95890.25;;;19.12;31.59
20160;BME280;50187;50.492;12.134;2023-03-13T16:07:47;95859.06;;;19.03;31.51
20160;BME280;50187;50.492;12.134;2023-03-13T16:10:33;95884.84;;;19.12;31.60
20160;BME280;50187;50.492;12.134;2023-03-13T16:13:20;95882.56;;;19.16;31.56
20160;BME280;50187;50.492;12.134;2023-03-13T16:16:19;95860.81;;;19.17;31.50